sensor_id;sensor_type;location;lat;lon;timestamp;pressure;altitude;pressure_sealevel;temperature;humidity
70921;BME280;58572;48.110;19.838;2023-03-03T00:00:08;97942.00;;;3.46;72.54
70921;BME280;58572;48.110;19.838;2023-03-03T00:02:35;97942.34;;;3.49;72.99
70921;BME280;58572;48.110;19.838;2023-03-03T00:05:05;97943.03;;;3.45;72.35
70921;BME280;58572;48.110;19.838;2023-03-03T00:07:32;97940.56;;;3.55;72.07
70921;BME280;58572;48.110;19.838;2023-03-03T00:09:59;97937.56;;;3.40;72.17
70921;BME280;58572;48.110;19.838;2023-03-03T00:12:27;97943.50;;;3.42;73.08
70921;BME280;58572;48.110;19.838;2023-03-03T00:14:55;97867.50;;;3.06;71.26
70921;BME280;58572;48.110;19.838;2023-03-03T00:17:23;97934.34;;;3.66;71.05
70921;BME280;58572;48.110;19.838;2023-03-03T00:19:50;97929.41;;;3.75;70.24
70921;BME280;58572;48.110;19.838;2023-03-03T00:22:27;97931.03;;;3.36;71.76
70921;BME280;58572;48.110;19.838;2023-03-03T00:24:54;97935.34;;;3.37;73.94
70921;BME280;58572;48.110;19.838;2023-03-03T00:27:27;97926.56;;;3.53;72.98
70921;BME280;58572;48.110;19.838;2023-03-03T00:29:55;97878.72;;;3.27;71.90
70921;BME280;58572;48.110;19.838;2023-03-03T00:32:25;97935.41;;;3.65;72.12
70921;BME280;58572;48.110;19.838;2023-03-03T00:34:54;97923.59;;;3.66;72.06
70921;BME280;58572;48.110;19.838;2023-03-03T00:37:31;97929.38;;;3.35;73.06
70921;BME280;58572;48.110;19.838;2023-03-03T00:40:15;97906.50;;;2.97;73.81
70921;BME280;58572;48.110;19.838;2023-03-03T00:42:48;97918.75;;;3.40;73.07
70921;BME280;58572;48.110;19.838;2023-03-03T00:45:23;97919.16;;;3.60;72.25
70921;BME280;58572;48.110;19.838;2023-03-03T00:47:52;97920.47;;;3.58;71.20
70921;BME280;58572;48.110;19.838;2023-03-03T00:50:33;97915.66;;;3.60;71.01
70921;BME280;58572;48.110;19.838;2023-03-03T00:53:10;97914.84;;;3.59;69.52
70921;BME280;58572;48.110;19.838;2023-03-03T00:55:39;97913.59;;;3.50;70.67
70921;BME280;58572;48.110;19.838;2023-03-03T00:58:06;97917.47;;;3.31;73.25
70921;BME280;58572;48.110;19.838;2023-03-03T01:00:34;97913.50;;;2.98;74.10
70921;BME280;58572;48.110;19.838;2023-03-03T01:03:02;97907.44;;;2.68;74.95
70921;BME280;58572;48.110;19.838;2023-03-03T01:05:30;97903.81;;;2.85;74.97
70921;BME280;58572;48.110;19.838;2023-03-03T01:07:57;97900.09;;;2.86;74.63
70921;BME280;58572;48.110;19.838;2023-03-03T01:10:26;97899.16;;;2.93;74.30
70921;BME280;58572;48.110;19.838;2023-03-03T01:12:54;97901.50;;;3.12;73.63
70921;BME280;58572;48.110;19.838;2023-03-03T01:15:22;97892.03;;;2.98;74.13
70921;BME280;58572;48.110;19.838;2023-03-03T01:17:50;97819.91;;;2.43;75.16
70921;BME280;58572;48.110;19.838;2023-03-03T01:20:17;97862.38;;;2.70;75.37
70921;BME280;58572;48.110;19.838;2023-03-03T01:22:45;97884.44;;;2.95;74.39
70921;BME280;58572;48.110;19.838;2023-03-03T01:25:12;97885.50;;;2.94;74.79
70921;BME280;58572;48.110;19.838;2023-03-03T01:27:40;97883.84;;;2.93;74.65
70921;BME280;58572;48.110;19.838;2023-03-03T01:30:08;97881.50;;;3.08;73.43
70921;BME280;58572;48.110;19.838;2023-03-03T01:32:35;97880.13;;;3.17;73.77
70921;BME280;58572;48.110;19.838;2023-03-03T01:35:03;97884.91;;;3.04;74.39
70921;BME280;58572;48.110;19.838;2023-03-03T01:37:30;97883.13;;;3.09;74.18
70921;BME280;58572;48.110;19.838;2023-03-03T01:39:57;97869.97;;;3.19;73.80
70921;BME280;58572;48.110;19.838;2023-03-03T01:42:24;97882.09;;;3.10;73.69
70921;BME280;58572;48.110;19.838;2023-03-03T01:45:14;97878.91;;;3.37;73.38
70921;BME280;58572;48.110;19.838;2023-03-03T01:47:46;97875.19;;;3.26;72.93
70921;BME280;58572;48.110;19.838;2023-03-03T01:50:20;97885.59;;;3.23;73.17
70921;BME280;58572;48.110;19.838;2023-03-03T01:52:53;97880.22;;;3.23;73.50
70921;BME280;58572;48.110;19.838;2023-03-03T01:55:21;97871.91;;;3.36;72.81
70921;BME280;58572;48.110;19.838;2023-03-03T01:57:53;97813.72;;;2.89;73.00
70921;BME280;58572;48.110;19.838;2023-03-03T02:00:25;97871.91;;;3.36;72.27
70921;BME280;58572;48.110;19.838;2023-03-03T02:02:53;97869.78;;;3.49;71.31
70921;BME280;58572;48.110;19.838;2023-03-03T02:05:20;97873.28;;;3.50;68.39
70921;BME280;58572;48.110;19.838;2023-03-03T02:07:47;97870.59;;;3.78;67.45
70921;BME280;58572;48.110;19.838;2023-03-03T02:10:16;97809.91;;;3.26;66.19
70921;BME280;58572;48.110;19.838;2023-03-03T02:12:45;97876.75;;;2.87;72.85
70921;BME280;58572;48.110;19.838;2023-03-03T02:15:19;97874.84;;;3.11;70.19
70921;BME280;58572;48.110;19.838;2023-03-03T02:17:48;97874.88;;;2.52;73.73
70921;BME280;58572;48.110;19.838;2023-03-03T02:20:26;97867.69;;;3.40;69.39
70921;BME280;58572;48.110;19.838;2023-03-03T02:22:58;97865.44;;;3.48;67.47
70921;BME280;58572;48.110;19.838;2023-03-03T02:25:32;97866.59;;;4.09;64.78
70921;BME280;58572;48.110;19.838;2023-03-03T02:28:01;97866.84;;;3.51;66.23
70921;BME280;58572;48.110;19.838;2023-03-03T02:30:29;97865.00;;;3.40;67.31
70921;BME280;58572;48.110;19.838;2023-03-03T02:32:56;97840.06;;;3.16;67.25
70921;BME280;58572;48.110;19.838;2023-03-03T02:35:32;97869.03;;;2.44;72.92
70921;BME280;58572;48.110;19.838;2023-03-03T02:38:07;97871.00;;;2.37;73.91
70921;BME280;58572;48.110;19.838;2023-03-03T02:40:44;97862.16;;;2.60;73.51
70921;BME280;58572;48.110;19.838;2023-03-03T02:43:15;97861.69;;;2.86;73.04
70921;BME280;58572;48.110;19.838;2023-03-03T02:45:44;97854.34;;;2.81;73.38
70921;BME280;58572;48.110;19.838;2023-03-03T02:48:11;97860.16;;;3.02;71.91
70921;BME280;58572;48.110;19.838;2023-03-03T02:50:38;97840.78;;;2.76;74.27
70921;BME280;58572;48.110;19.838;2023-03-03T02:53:05;97844.66;;;2.80;73.75
70921;BME280;58572;48.110;19.838;2023-03-03T02:55:32;97800.66;;;2.70;73.41
70921;BME280;58572;48.110;19.838;2023-03-03T02:57:59;97825.81;;;3.56;68.54
70921;BME280;58572;48.110;19.838;2023-03-03T03:00:27;97837.56;;;3.38;69.69
70921;BME280;58572;48.110;19.838;2023-03-03T03:02:54;97744.59;;;2.10;71.38
70921;BME280;58572;48.110;19.838;2023-03-03T03:05:21;97831.69;;;2.89;69.69
70921;BME280;58572;48.110;19.838;2023-03-03T03:07:48;97821.41;;;3.49;66.57
70921;BME280;58572;48.110;19.838;2023-03-03T03:10:15;97831.44;;;3.54;66.35
70921;BME280;58572;48.110;19.838;2023-03-03T03:12:42;97795.09;;;3.11;67.88
70921;BME280;58572;48.110;19.838;2023-03-03T03:15:10;97815.34;;;3.42;66.78
70921;BME280;58572;48.110;19.838;2023-03-03T03:17:38;97826.00;;;2.50;71.87
70921;BME280;58572;48.110;19.838;2023-03-03T03:20:06;97752.16;;;2.36;72.78
70921;BME280;58572;48.110;19.838;2023-03-03T03:22:33;97817.41;;;3.12;70.04
70921;BME280;58572;48.110;19.838;2023-03-03T03:25:00;97815.50;;;3.36;67.60
70921;BME280;58572;48.110;19.838;2023-03-03T03:27:27;97800.66;;;3.62;65.60
70921;BME280;58572;48.110;19.838;2023-03-03T03:29:54;97811.91;;;3.18;67.47
70921;BME280;58572;48.110;19.838;2023-03-03T03:32:21;97702.69;;;1.74;71.46
70921;BME280;58572;48.110;19.838;2023-03-03T03:34:50;97810.69;;;2.16;73.44
70921;BME280;58572;48.110;19.838;2023-03-03T03:37:17;97800.09;;;2.21;74.02
70921;BME280;58572;48.110;19.838;2023-03-03T03:39:44;97803.13;;;2.36;73.96
70921;BME280;58572;48.110;19.838;2023-03-03T03:42:11;97794.19;;;3.17;67.96
70921;BME280;58572;48.110;19.838;2023-03-03T03:44:38;97799.66;;;3.51;65.51
70921;BME280;58572;48.110;19.838;2023-03-03T03:47:05;97791.59;;;3.23;66.88
70921;BME280;58572;48.110;19.838;2023-03-03T03:49:32;97798.63;;;2.07;72.70
70921;BME280;58572;48.110;19.838;2023-03-03T03:52:00;97798.97;;;1.99;74.90
70921;BME280;58572;48.110;19.838;2023-03-03T03:54:27;97795.06;;;2.13;74.78
70921;BME280;58572;48.110;19.838;2023-03-03T03:56:54;97797.53;;;2.49;73.80
70921;BME280;58572;48.110;19.838;2023-03-03T03:59:21;97793.78;;;2.50;73.62
70921;BME280;58572;48.110;19.838;2023-03-03T04:01:48;97789.72;;;2.36;74.54
70921;BME280;58572;48.110;19.838;2023-03-03T04:04:15;97483.63;;;0.11;75.40
70921;BME280;58572;48.110;19.838;2023-03-03T04:06:42;97782.31;;;1.97;76.18
70921;BME280;58572;48.110;19.838;2023-03-03T04:09:11;97754.78;;;1.89;75.39
70921;BME280;58572;48.110;19.838;2023-03-03T04:11:38;97795.41;;;2.75;73.47
70921;BME280;58572;48.110;19.838;2023-03-03T04:14:05;97789.25;;;3.55;65.14
70921;BME280;58572;48.110;19.838;2023-03-03T04:16:32;97787.66;;;3.70;64.55
70921;BME280;58572;48.110;19.838;2023-03-03T04:18:59;97780.94;;;3.56;64.79
70921;BME280;58572;48.110;19.838;2023-03-03T04:21:27;97778.53;;;3.43;65.52
70921;BME280;58572;48.110;19.838;2023-03-03T04:23:54;97785.50;;;3.27;66.03
70921;BME280;58572;48.110;19.838;2023-03-03T04:26:22;97771.97;;;3.10;65.44
70921;BME280;58572;48.110;19.838;2023-03-03T04:28:49;97780.97;;;3.73;64.02
70921;BME280;58572;48.110;19.838;2023-03-03T04:31:16;97782.09;;;3.60;63.50
70921;BME280;58572;48.110;19.838;2023-03-03T04:33:45;97764.25;;;3.26;65.07
70921;BME280;58572;48.110;19.838;2023-03-03T04:36:12;97755.50;;;2.67;67.96
70921;BME280;58572;48.110;19.838;2023-03-03T04:38:38;97688.78;;;2.59;65.02
70921;BME280;58572;48.110;19.838;2023-03-03T04:41:05;97784.25;;;3.06;65.39
70921;BME280;58572;48.110;19.838;2023-03-03T04:43:34;97781.38;;;2.03;71.79
70921;BME280;58572;48.110;19.838;2023-03-03T04:46:01;97792.19;;;1.84;72.69
70921;BME280;58572;48.110;19.838;2023-03-03T04:48:28;97787.28;;;1.81;73.71
70921;BME280;58572;48.110;19.838;2023-03-03T04:50:55;97780.53;;;1.79;74.08
70921;BME280;58572;48.110;19.838;2023-03-03T04:53:22;97782.84;;;1.75;74.44
70921;BME280;58572;48.110;19.838;2023-03-03T04:55:50;97775.59;;;2.29;73.84
70921;BME280;58572;48.110;19.838;2023-03-03T04:58:17;97778.00;;;1.96;74.44
70921;BME280;58572;48.110;19.838;2023-03-03T05:00:47;97777.44;;;2.64;69.70
70921;BME280;58572;48.110;19.838;2023-03-03T05:03:18;97768.72;;;3.08;66.57
70921;BME280;58572;48.110;19.838;2023-03-03T05:05:46;97768.19;;;3.35;64.15
70921;BME280;58572;48.110;19.838;2023-03-03T05:08:13;97747.56;;;3.12;64.89
70921;BME280;58572;48.110;19.838;2023-03-03T05:10:40;97781.91;;;3.10;65.15
70921;BME280;58572;48.110;19.838;2023-03-03T05:13:08;97775.28;;;3.01;64.85
70921;BME280;58572;48.110;19.838;2023-03-03T05:15:35;97769.53;;;3.49;64.14
70921;BME280;58572;48.110;19.838;2023-03-03T05:18:03;97769.66;;;3.42;63.57
70921;BME280;58572;48.110;19.838;2023-03-03T05:20:30;97773.06;;;3.38;63.77
70921;BME280;58572;48.110;19.838;2023-03-03T05:22:57;97773.03;;;3.09;64.97
70921;BME280;58572;48.110;19.838;2023-03-03T05:25:26;97778.91;;;2.95;65.45
70921;BME280;58572;48.110;19.838;2023-03-03T05:27:53;97783.69;;;1.87;71.39
70921;BME280;58572;48.110;19.838;2023-03-03T05:30:22;97772.78;;;2.12;72.44
70921;BME280;58572;48.110;19.838;2023-03-03T05:32:49;97773.38;;;2.26;72.59
70921;BME280;58572;48.110;19.838;2023-03-03T05:35:17;97774.31;;;2.32;73.58
70921;BME280;58572;48.110;19.838;2023-03-03T05:37:45;97777.34;;;3.10;66.15
70921;BME280;58572;48.110;19.838;2023-03-03T05:40:14;97770.34;;;3.49;63.32
70921;BME280;58572;48.110;19.838;2023-03-03T05:42:41;97777.09;;;3.24;64.23
70921;BME280;58572;48.110;19.838;2023-03-03T05:45:09;97793.69;;;3.09;64.59
70921;BME280;58572;48.110;19.838;2023-03-03T05:47:36;97791.84;;;3.09;64.68
70921;BME280;58572;48.110;19.838;2023-03-03T05:50:03;97720.66;;;2.43;65.17
70921;BME280;58572;48.110;19.838;2023-03-03T05:52:32;97772.09;;;2.40;66.03
70921;BME280;58572;48.110;19.838;2023-03-03T05:54:59;97743.63;;;2.63;66.57
70921;BME280;58572;48.110;19.838;2023-03-03T05:57:26;97794.38;;;2.52;71.72
70921;BME280;58572;48.110;19.838;2023-03-03T05:59:53;97789.34;;;2.68;68.75
70921;BME280;58572;48.110;19.838;2023-03-03T06:02:20;97794.03;;;2.61;70.57
70921;BME280;58572;48.110;19.838;2023-03-03T06:04:47;97786.84;;;3.01;66.23
70921;BME280;58572;48.110;19.838;2023-03-03T06:07:14;97789.59;;;2.54;73.32
70921;BME280;58572;48.110;19.838;2023-03-03T06:09:43;97788.06;;;2.23;73.81
70921;BME280;58572;48.110;19.838;2023-03-03T06:12:10;97789.13;;;2.11;74.54
70921;BME280;58572;48.110;19.838;2023-03-03T06:14:37;97797.88;;;2.18;75.00
70921;BME280;58572;48.110;19.838;2023-03-03T06:17:04;97792.63;;;2.46;73.59
70921;BME280;58572;48.110;19.838;2023-03-03T06:19:31;97795.41;;;2.75;70.25
70921;BME280;58572;48.110;19.838;2023-03-03T06:21:58;97798.00;;;3.22;69.77
70921;BME280;58572;48.110;19.838;2023-03-03T06:24:25;97794.25;;;3.79;63.21
70921;BME280;58572;48.110;19.838;2023-03-03T06:26:56;97797.09;;;3.73;63.23
70921;BME280;58572;48.110;19.838;2023-03-03T06:29:23;97796.94;;;3.79;63.32
70921;BME280;58572;48.110;19.838;2023-03-03T06:31:50;97810.63;;;3.21;64.80
70921;BME280;58572;48.110;19.838;2023-03-03T06:34:17;97803.16;;;3.23;65.06
70921;BME280;58572;48.110;19.838;2023-03-03T06:36:44;97804.47;;;3.49;63.63
70921;BME280;58572;48.110;19.838;2023-03-03T06:39:12;97805.81;;;3.63;63.22
70921;BME280;58572;48.110;19.838;2023-03-03T06:41:39;97800.50;;;3.68;62.98
70921;BME280;58572;48.110;19.838;2023-03-03T06:44:07;97679.88;;;2.70;65.99
70921;BME280;58572;48.110;19.838;2023-03-03T06:46:36;97749.41;;;2.83;64.93
70921;BME280;58572;48.110;19.838;2023-03-03T06:49:03;97686.69;;;2.61;65.81
70921;BME280;58572;48.110;19.838;2023-03-03T06:51:32;97813.06;;;3.23;67.98
70921;BME280;58572;48.110;19.838;2023-03-03T06:54:02;97801.47;;;2.70;72.90
70921;BME280;58572;48.110;19.838;2023-03-03T06:56:36;97817.22;;;3.42;69.12
70921;BME280;58572;48.110;19.838;2023-03-03T06:59:05;97818.28;;;3.41;71.97
70921;BME280;58572;48.110;19.838;2023-03-03T07:01:38;97755.50;;;3.47;63.91
70921;BME280;58572;48.110;19.838;2023-03-03T07:04:12;97836.09;;;3.18;69.92
70921;BME280;58572;48.110;19.838;2023-03-03T07:06:42;97826.41;;;2.94;72.81
70921;BME280;58572;48.110;19.838;2023-03-03T07:09:15;97834.94;;;2.91;74.13
70921;BME280;58572;48.110;19.838;2023-03-03T07:11:45;97804.66;;;3.31;71.35
70921;BME280;58572;48.110;19.838;2023-03-03T07:14:15;97762.38;;;3.55;69.38
70921;BME280;58572;48.110;19.838;2023-03-03T07:16:43;97820.53;;;4.06;69.49
70921;BME280;58572;48.110;19.838;2023-03-03T07:19:17;97827.56;;;3.22;72.07
70921;BME280;58572;48.110;19.838;2023-03-03T07:21:46;97824.28;;;3.08;74.26
70921;BME280;58572;48.110;19.838;2023-03-03T07:24:21;97831.00;;;3.45;74.00
70921;BME280;58572;48.110;19.838;2023-03-03T07:26:50;97828.16;;;4.26;68.71
70921;BME280;58572;48.110;19.838;2023-03-03T07:29:21;97833.31;;;4.27;68.76
70921;BME280;58572;48.110;19.838;2023-03-03T07:31:52;97832.59;;;3.58;74.03
70921;BME280;58572;48.110;19.838;2023-03-03T07:34:22;97832.00;;;3.84;72.31
70921;BME280;58572;48.110;19.838;2023-03-03T07:36:53;97800.91;;;3.60;73.76
70921;BME280;58572;48.110;19.838;2023-03-03T07:39:30;97828.06;;;3.75;74.20
70921;BME280;58572;48.110;19.838;2023-03-03T07:42:08;97827.75;;;3.89;73.71
70921;BME280;58572;48.110;19.838;2023-03-03T07:44:38;97810.75;;;5.05;68.99
70921;BME280;58572;48.110;19.838;2023-03-03T07:47:18;97821.78;;;4.48;71.87
70921;BME280;58572;48.110;19.838;2023-03-03T07:49:46;97819.25;;;5.36;67.60
70921;BME280;58572;48.110;19.838;2023-03-03T07:52:27;97813.69;;;5.04;66.61
70921;BME280;58572;48.110;19.838;2023-03-03T07:54:55;97814.53;;;5.48;64.75
70921;BME280;58572;48.110;19.838;2023-03-03T07:57:25;97814.59;;;6.02;63.80
70921;BME280;58572;48.110;19.838;2023-03-03T07:59:54;97813.31;;;5.61;63.59
70921;BME280;58572;48.110;19.838;2023-03-03T08:02:37;97808.66;;;6.69;62.23
70921;BME280;58572;48.110;19.838;2023-03-03T08:05:28;97811.44;;;6.79;62.36
70921;BME280;58572;48.110;19.838;2023-03-03T08:08:10;97816.91;;;6.20;63.29
70921;BME280;58572;48.110;19.838;2023-03-03T08:10:43;97808.97;;;5.82;64.60
70921;BME280;58572;48.110;19.838;2023-03-03T08:13:16;97803.13;;;6.49;61.89
70921;BME280;58572;48.110;19.838;2023-03-03T08:15:45;97813.13;;;6.21;63.25
70921;BME280;58572;48.110;19.838;2023-03-03T08:18:28;97806.38;;;6.51;62.26
70921;BME280;58572;48.110;19.838;2023-03-03T08:20:57;97805.81;;;6.17;63.19
70921;BME280;58572;48.110;19.838;2023-03-03T08:23:25;97813.50;;;6.67;60.59
70921;BME280;58572;48.110;19.838;2023-03-03T08:25:52;97816.25;;;6.72;61.04
70921;BME280;58572;48.110;19.838;2023-03-03T08:28:20;97773.66;;;6.89;60.43
70921;BME280;58572;48.110;19.838;2023-03-03T08:30:47;97815.13;;;7.83;60.89
70921;BME280;58572;48.110;19.838;2023-03-03T08:33:16;97813.50;;;7.82;59.83
70921;BME280;58572;48.110;19.838;2023-03-03T08:35:45;97817.22;;;7.55;57.89
70921;BME280;58572;48.110;19.838;2023-03-03T08:38:13;97816.88;;;8.35;58.92
70921;BME280;58572;48.110;19.838;2023-03-03T08:40:41;97818.69;;;8.04;58.89
70921;BME280;58572;48.110;19.838;2023-03-03T08:43:09;97758.78;;;9.07;55.93
70921;BME280;58572;48.110;19.838;2023-03-03T08:45:38;97807.72;;;10.00;55.11
70921;BME280;58572;48.110;19.838;2023-03-03T08:48:06;97807.88;;;10.19;52.51
70921;BME280;58572;48.110;19.838;2023-03-03T08:50:33;97797.50;;;10.31;53.44
70921;BME280;58572;48.110;19.838;2023-03-03T08:53:01;97811.66;;;8.99;56.11
70921;BME280;58572;48.110;19.838;2023-03-03T08:55:29;97813.16;;;10.00;53.66
70921;BME280;58572;48.110;19.838;2023-03-03T08:57:56;97776.56;;;10.32;53.29
70921;BME280;58572;48.110;19.838;2023-03-03T09:00:23;97771.41;;;11.17;52.56
70921;BME280;58572;48.110;19.838;2023-03-03T09:02:51;97811.94;;;8.98;54.77
70921;BME280;58572;48.110;19.838;2023-03-03T09:05:19;97676.41;;;11.39;48.42
70921;BME280;58572;48.110;19.838;2023-03-03T09:07:47;97794.84;;;11.61;51.12
70921;BME280;58572;48.110;19.838;2023-03-03T09:10:19;97794.47;;;12.61;49.14
70921;BME280;58572;48.110;19.838;2023-03-03T09:12:47;97797.59;;;13.01;46.31
70921;BME280;58572;48.110;19.838;2023-03-03T09:15:18;97805.34;;;9.88;51.86
70921;BME280;58572;48.110;19.838;2023-03-03T09:17:46;97780.56;;;13.64;46.70
70921;BME280;58572;48.110;19.838;2023-03-03T09:20:41;97790.25;;;14.20;45.96
70921;BME280;58572;48.110;19.838;2023-03-03T09:23:25;97743.44;;;11.78;49.14
70921;BME280;58572;48.110;19.838;2023-03-03T09:25:55;97795.84;;;12.07;49.70
70921;BME280;58572;48.110;19.838;2023-03-03T09:28:24;97802.41;;;11.16;48.89
70921;BME280;58572;48.110;19.838;2023-03-03T09:30:53;97802.41;;;11.64;49.59
70921;BME280;58572;48.110;19.838;2023-03-03T09:33:25;97755.78;;;13.47;44.99
70921;BME280;58572;48.110;19.838;2023-03-03T09:35:57;97790.00;;;14.30;43.75
70921;BME280;58572;48.110;19.838;2023-03-03T09:38:28;97796.06;;;15.16;42.75
70921;BME280;58572;48.110;19.838;2023-03-03T09:41:21;97796.22;;;14.58;44.73
70921;BME280;58572;48.110;19.838;2023-03-03T09:44:09;97798.94;;;14.80;41.03
70921;BME280;58572;48.110;19.838;2023-03-03T09:46:49;97792.00;;;15.93;42.18
70921;BME280;58572;48.110;19.838;2023-03-03T09:49:24;97794.72;;;14.16;41.02
70921;BME280;58572;48.110;19.838;2023-03-03T09:52:21;97797.47;;;13.66;44.27
70921;BME280;58572;48.110;19.838;2023-03-03T09:55:07;97797.88;;;14.45;43.67
70921;BME280;58572;48.110;19.838;2023-03-03T09:57:50;97733.16;;;15.33;42.83
70921;BME280;58572;48.110;19.838;2023-03-03T10:00:33;97779.59;;;16.65;39.10
70921;BME280;58572;48.110;19.838;2023-03-03T10:06:16;97770.06;;;15.84;41.97
70921;BME280;58572;48.110;19.838;2023-03-03T10:08:55;97678.13;;;13.75;42.28
70921;BME280;58572;48.110;19.838;2023-03-03T10:11:29;97774.84;;;15.22;40.12
70921;BME280;58572;48.110;19.838;2023-03-03T10:14:24;97781.75;;;15.59;42.55
70921;BME280;58572;48.110;19.838;2023-03-03T10:17:13;97783.28;;;15.43;39.48
70921;BME280;58572;48.110;19.838;2023-03-03T10:19:47;97774.91;;;16.56;39.72
70921;BME280;58572;48.110;19.838;2023-03-03T10:22:19;97784.91;;;15.44;37.76
70921;BME280;58572;48.110;19.838;2023-03-03T10:25:13;97766.09;;;14.80;40.64
70921;BME280;58572;48.110;19.838;2023-03-03T10:27:53;97763.03;;;17.16;35.27
70921;BME280;58572;48.110;19.838;2023-03-03T10:30:30;97731.44;;;17.69;33.84
70921;BME280;58572;48.110;19.838;2023-03-03T10:33:01;97769.28;;;16.44;35.36
70921;BME280;58572;48.110;19.838;2023-03-03T10:35:45;97783.81;;;16.02;37.45
70921;BME280;58572;48.110;19.838;2023-03-03T10:38:28;97772.97;;;15.40;40.38
70921;BME280;58572;48.110;19.838;2023-03-03T10:41:20;97773.44;;;15.33;40.01
70921;BME280;58572;48.110;19.838;2023-03-03T10:44:04;97778.25;;;14.65;37.54
70921;BME280;58572;48.110;19.838;2023-03-03T10:46:51;97750.38;;;17.92;35.06
70921;BME280;58572;48.110;19.838;2023-03-03T10:49:42;97733.34;;;15.46;40.08
70921;BME280;58572;48.110;19.838;2023-03-03T10:52:32;97765.25;;;15.90;36.99
70921;BME280;58572;48.110;19.838;2023-03-03T10:55:28;97758.63;;;15.91;36.64
70921;BME280;58572;48.110;19.838;2023-03-03T11:00:58;97746.69;;;16.30;38.70
70921;BME280;58572;48.110;19.838;2023-03-03T11:06:44;97746.34;;;14.61;39.24
70921;BME280;58572;48.110;19.838;2023-03-03T11:09:23;97733.78;;;16.22;36.12
70921;BME280;58572;48.110;19.838;2023-03-03T11:11:57;97723.78;;;16.35;36.39
70921;BME280;58572;48.110;19.838;2023-03-03T11:14:32;97741.16;;;14.82;38.13
70921;BME280;58572;48.110;19.838;2023-03-03T11:17:05;97719.72;;;16.67;36.99
70921;BME280;58572;48.110;19.838;2023-03-03T11:19:56;97730.19;;;15.13;37.11
70921;BME280;58572;48.110;19.838;2023-03-03T11:22:43;97730.75;;;15.41;40.17
70921;BME280;58572;48.110;19.838;2023-03-03T11:25:22;97714.59;;;16.13;37.93
70921;BME280;58572;48.110;19.838;2023-03-03T11:28:03;97700.97;;;17.15;34.10
70921;BME280;58572;48.110;19.838;2023-03-03T11:30:42;97709.75;;;15.93;37.03
70921;BME280;58572;48.110;19.838;2023-03-03T11:33:18;97707.66;;;15.73;36.35
70921;BME280;58572;48.110;19.838;2023-03-03T11:35:48;97680.00;;;17.61;32.55
70921;BME280;58572;48.110;19.838;2023-03-03T11:38:45;97685.16;;;17.42;33.84
70921;BME280;58572;48.110;19.838;2023-03-03T11:41:22;97635.16;;;17.48;35.56
70921;BME280;58572;48.110;19.838;2023-03-03T11:43:57;97689.69;;;17.08;34.13
70921;BME280;58572;48.110;19.838;2023-03-03T11:46:29;97623.47;;;15.90;37.99
70921;BME280;58572;48.110;19.838;2023-03-03T11:49:02;97683.53;;;17.11;35.29
70921;BME280;58572;48.110;19.838;2023-03-03T11:51:43;97679.06;;;18.07;33.63
70921;BME280;58572;48.110;19.838;2023-03-03T11:54:19;97675.09;;;17.46;34.23
70921;BME280;58572;48.110;19.838;2023-03-03T11:56:48;97671.09;;;18.27;32.58
70921;BME280;58572;48.110;19.838;2023-03-03T11:59:34;97669.91;;;17.23;36.67
70921;BME280;58572;48.110;19.838;2023-03-03T12:02:14;97672.66;;;15.70;36.91
70921;BME280;58572;48.110;19.838;2023-03-03T12:04:47;97661.06;;;15.81;36.08
70921;BME280;58572;48.110;19.838;2023-03-03T12:07:24;97663.81;;;15.64;37.07
70921;BME280;58572;48.110;19.838;2023-03-03T12:10:16;97680.06;;;16.12;37.36
70921;BME280;58572;48.110;19.838;2023-03-03T12:12:52;97674.69;;;16.68;34.63
70921;BME280;58572;48.110;19.838;2023-03-03T12:15:30;97684.00;;;15.28;38.33
70921;BME280;58572;48.110;19.838;2023-03-03T12:18:32;97692.53;;;14.79;39.36
70921;BME280;58572;48.110;19.838;2023-03-03T12:21:17;97685.09;;;15.19;37.07
70921;BME280;58572;48.110;19.838;2023-03-03T12:24:14;97678.63;;;14.66;38.07
70921;BME280;58572;48.110;19.838;2023-03-03T12:26:50;97678.44;;;14.63;37.87
70921;BME280;58572;48.110;19.838;2023-03-03T12:29:25;97678.88;;;15.44;38.34
70921;BME280;58572;48.110;19.838;2023-03-03T12:31:59;97657.03;;;16.60;36.29
70921;BME280;58572;48.110;19.838;2023-03-03T12:34:33;97675.56;;;14.68;39.38
70921;BME280;58572;48.110;19.838;2023-03-03T12:37:12;97649.84;;;16.38;34.56
70921;BME280;58572;48.110;19.838;2023-03-03T12:39:57;97680.59;;;14.75;39.29
70921;BME280;58572;48.110;19.838;2023-03-03T12:42:37;97671.53;;;15.62;37.46
70921;BME280;58572;48.110;19.838;2023-03-03T12:45:20;97667.94;;;14.56;38.55
70921;BME280;58572;48.110;19.838;2023-03-03T12:47:54;97635.50;;;12.74;38.91
70921;BME280;58572;48.110;19.838;2023-03-03T12:50:33;97678.16;;;14.42;37.02
70921;BME280;58572;48.110;19.838;2023-03-03T12:53:09;97679.78;;;15.22;37.06
70921;BME280;58572;48.110;19.838;2023-03-03T12:55:48;97675.94;;;14.75;38.99
70921;BME280;58572;48.110;19.838;2023-03-03T12:58:28;97688.56;;;12.36;38.59
70921;BME280;58572;48.110;19.838;2023-03-03T13:01:07;97613.47;;;11.97;41.85
70921;BME280;58572;48.110;19.838;2023-03-03T13:03:39;97676.22;;;14.65;39.90
70921;BME280;58572;48.110;19.838;2023-03-03T13:06:14;97666.66;;;14.93;38.31
70921;BME280;58572;48.110;19.838;2023-03-03T13:08:53;97570.06;;;13.47;40.31
70921;BME280;58572;48.110;19.838;2023-03-03T13:11:34;97668.59;;;14.09;38.95
70921;BME280;58572;48.110;19.838;2023-03-03T13:14:12;97636.41;;;13.61;40.25
70921;BME280;58572;48.110;19.838;2023-03-03T13:16:48;97660.69;;;13.62;41.81
70921;BME280;58572;48.110;19.838;2023-03-03T13:19:19;97663.13;;;14.09;39.86
70921;BME280;58572;48.110;19.838;2023-03-03T13:21:51;97662.72;;;13.43;41.59
70921;BME280;58572;48.110;19.838;2023-03-03T13:24:24;97663.72;;;13.47;41.55
70921;BME280;58572;48.110;19.838;2023-03-03T13:26:57;97657.50;;;13.33;40.02
70921;BME280;58572;48.110;19.838;2023-03-03T13:29:28;97648.78;;;14.34;39.85
70921;BME280;58572;48.110;19.838;2023-03-03T13:31:58;97655.28;;;13.71;42.13